sensor_id;sensor_type;location;lat;lon;timestamp;pressure;altitude;pressure_sealevel;temperature;humidity
39949;BME280;29070;48.102;-1.652;2023-04-22T00:04:48;100217.94;;;11.45;51.44
39949;BME280;29070;48.102;-1.652;2023-04-22T00:09:49;100208.66;;;11.43;51.29
39949;BME280;29070;48.102;-1.652;2023-04-22T00:14:49;100194.13;;;11.40;51.49
39949;BME280;29070;48.102;-1.652;2023-04-22T00:19:50;100174.34;;;11.38;51.58
39949;BME280;29070;48.102;-1.652;2023-04-22T00:24:50;100179.59;;;11.38;51.65
39949;BME280;29070;48.102;-1.652;2023-04-22T00:29:50;100174.97;;;11.33;51.53
39949;BME280;29070;48.102;-1.652;2023-04-22T00:34:51;100171.13;;;11.36;51.82
39949;BME280;29070;48.102;-1.652;2023-04-22T00:39:51;100170.88;;;11.37;51.91
39949;BME280;29070;48.102;-1.652;2023-04-22T00:44:52;100168.50;;;11.36;51.96
39949;BME280;29070;48.102;-1.652;2023-04-22T00:49:53;100177.97;;;11.37;52.18
39949;BME280;29070;48.102;-1.652;2023-04-22T00:54:54;100156.16;;;11.36;52.13
39949;BME280;29070;48.102;-1.652;2023-04-22T00:59:54;100153.34;;;11.31;52.08
39949;BME280;29070;48.102;-1.652;2023-04-22T01:04:55;100139.06;;;11.27;51.90
39949;BME280;29070;48.102;-1.652;2023-04-22T01:09:55;100134.03;;;11.19;52.07
39949;BME280;29070;48.102;-1.652;2023-04-22T01:14:56;100123.16;;;11.15;52.36
39949;BME280;29070;48.102;-1.652;2023-04-22T01:19:57;100116.69;;;11.18;52.31
39949;BME280;29070;48.102;-1.652;2023-04-22T01:24:58;100102.72;;;11.17;52.42
39949;BME280;29070;48.102;-1.652;2023-04-22T01:29:58;100090.25;;;11.13;52.44
39949;BME280;29070;48.102;-1.652;2023-04-22T01:34:59;100094.94;;;11.11;52.37
39949;BME280;29070;48.102;-1.652;2023-04-22T01:40:00;100103.59;;;11.11;52.70
39949;BME280;29070;48.102;-1.652;2023-04-22T01:45:01;100139.72;;;11.16;52.74
39949;BME280;29070;48.102;-1.652;2023-04-22T01:50:01;100171.84;;;11.18;52.94
39949;BME280;29070;48.102;-1.652;2023-04-22T01:55:01;100181.91;;;11.21;53.06
39949;BME280;29070;48.102;-1.652;2023-04-22T02:00:02;100186.59;;;11.19;53.06
39949;BME280;29070;48.102;-1.652;2023-04-22T02:05:07;100185.38;;;11.21;53.36
39949;BME280;29070;48.102;-1.652;2023-04-22T02:10:08;100165.16;;;11.22;53.30
39949;BME280;29070;48.102;-1.652;2023-04-22T02:15:09;100160.72;;;11.16;53.02
39949;BME280;29070;48.102;-1.652;2023-04-22T02:20:10;100143.38;;;11.15;53.15
39949;BME280;29070;48.102;-1.652;2023-04-22T02:25:11;100135.75;;;11.06;53.24
39949;BME280;29070;48.102;-1.652;2023-04-22T02:30:13;100136.34;;;11.09;53.23
39949;BME280;29070;48.102;-1.652;2023-04-22T02:35:13;100127.66;;;11.08;53.23
39949;BME280;29070;48.102;-1.652;2023-04-22T02:40:14;100122.81;;;11.05;53.36
39949;BME280;29070;48.102;-1.652;2023-04-22T02:45:14;100123.84;;;11.04;53.46
39949;BME280;29070;48.102;-1.652;2023-04-22T02:50:15;100125.03;;;11.08;53.67
39949;BME280;29070;48.102;-1.652;2023-04-22T02:55:15;100109.06;;;11.10;53.58
39949;BME280;29070;48.102;-1.652;2023-04-22T03:00:16;100117.94;;;11.09;53.66
39949;BME280;29070;48.102;-1.652;2023-04-22T03:05:16;100115.94;;;11.11;53.69
39949;BME280;29070;48.102;-1.652;2023-04-22T03:10:17;100132.50;;;11.11;53.81
39949;BME280;29070;48.102;-1.652;2023-04-22T03:15:17;100154.53;;;11.03;53.87
39949;BME280;29070;48.102;-1.652;2023-04-22T03:20:18;100155.97;;;11.06;54.00
39949;BME280;29070;48.102;-1.652;2023-04-22T03:25:18;100163.03;;;11.05;54.17
39949;BME280;29070;48.102;-1.652;2023-04-22T03:30:19;100154.78;;;11.02;54.16
39949;BME280;29070;48.102;-1.652;2023-04-22T03:35:19;100148.69;;;11.01;54.30
39949;BME280;29070;48.102;-1.652;2023-04-22T03:40:20;100155.00;;;11.00;54.53
39949;BME280;29070;48.102;-1.652;2023-04-22T03:45:20;100162.03;;;11.00;54.47
39949;BME280;29070;48.102;-1.652;2023-04-22T03:50:20;100149.56;;;10.95;55.00
39949;BME280;29070;48.102;-1.652;2023-04-22T03:55:21;100150.75;;;10.99;55.24
39949;BME280;29070;48.102;-1.652;2023-04-22T04:00:21;100148.75;;;10.95;55.43
39949;BME280;29070;48.102;-1.652;2023-04-22T04:05:21;100143.50;;;10.95;55.92
39949;BME280;29070;48.102;-1.652;2023-04-22T04:10:22;100132.63;;;10.91;55.98
39949;BME280;29070;48.102;-1.652;2023-04-22T04:15:22;100135.66;;;10.88;56.42
39949;BME280;29070;48.102;-1.652;2023-04-22T04:20:23;100130.66;;;10.80;56.70
39949;BME280;29070;48.102;-1.652;2023-04-22T04:25:23;100122.19;;;10.78;56.90
39949;BME280;29070;48.102;-1.652;2023-04-22T04:30:23;100114.53;;;10.76;56.94
39949;BME280;29070;48.102;-1.652;2023-04-22T04:35:24;100116.94;;;10.78;57.19
39949;BME280;29070;48.102;-1.652;2023-04-22T04:40:25;100122.00;;;10.73;57.46
39949;BME280;29070;48.102;-1.652;2023-04-22T04:45:28;100125.06;;;10.70;57.53
39949;BME280;29070;48.102;-1.652;2023-04-22T04:50:29;100126.66;;;10.71;57.60
39949;BME280;29070;48.102;-1.652;2023-04-22T04:55:29;100111.34;;;10.67;57.77
39949;BME280;29070;48.102;-1.652;2023-04-22T05:00:29;100116.81;;;10.66;57.82
39949;BME280;29070;48.102;-1.652;2023-04-22T05:05:30;100119.66;;;10.64;58.20
39949;BME280;29070;48.102;-1.652;2023-04-22T05:10:30;100125.31;;;10.61;58.13
39949;BME280;29070;48.102;-1.652;2023-04-22T05:15:31;100133.38;;;10.60;58.20
39949;BME280;29070;48.102;-1.652;2023-04-22T05:20:31;100124.13;;;10.57;58.29
39949;BME280;29070;48.102;-1.652;2023-04-22T05:25:31;100135.84;;;10.55;58.52
39949;BME280;29070;48.102;-1.652;2023-04-22T05:30:32;100146.91;;;10.57;58.49
39949;BME280;29070;48.102;-1.652;2023-04-22T05:35:32;100154.59;;;10.58;58.87
39949;BME280;29070;48.102;-1.652;2023-04-22T05:40:33;100157.41;;;10.57;58.90
39949;BME280;29070;48.102;-1.652;2023-04-22T05:45:33;100161.47;;;10.59;59.14
39949;BME280;29070;48.102;-1.652;2023-04-22T05:50:34;100163.69;;;10.62;58.94
39949;BME280;29070;48.102;-1.652;2023-04-22T05:55:34;100178.16;;;10.72;59.09
39949;BME280;29070;48.102;-1.652;2023-04-22T06:06:31;100187.59;;;10.86;59.44
39949;BME280;29070;48.102;-1.652;2023-04-22T06:11:32;100189.94;;;10.94;59.21
39949;BME280;29070;48.102;-1.652;2023-04-22T06:16:33;100199.63;;;11.00;59.31
39949;BME280;29070;48.102;-1.652;2023-04-22T06:21:33;100215.56;;;11.05;59.07
39949;BME280;29070;48.102;-1.652;2023-04-22T06:26:36;100210.50;;;11.11;59.02
39949;BME280;29070;48.102;-1.652;2023-04-22T06:31:36;100209.22;;;11.20;59.15
39949;BME280;29070;48.102;-1.652;2023-04-22T06:36:37;100214.78;;;11.30;59.08
39949;BME280;29070;48.102;-1.652;2023-04-22T06:41:37;100234.56;;;11.39;58.86
39949;BME280;29070;48.102;-1.652;2023-04-22T06:46:37;100239.75;;;11.46;58.81
39949;BME280;29070;48.102;-1.652;2023-04-22T06:51:38;100232.63;;;11.53;58.89
39949;BME280;29070;48.102;-1.652;2023-04-22T06:56:38;100240.84;;;11.63;59.01
39949;BME280;29070;48.102;-1.652;2023-04-22T07:01:39;100246.66;;;11.72;58.60
39949;BME280;29070;48.102;-1.652;2023-04-22T07:06:40;100251.50;;;11.75;58.37
39949;BME280;29070;48.102;-1.652;2023-04-22T07:11:40;100253.25;;;11.81;57.97
39949;BME280;29070;48.102;-1.652;2023-04-22T07:16:40;100245.97;;;11.83;57.52
39949;BME280;29070;48.102;-1.652;2023-04-22T07:21:41;100253.63;;;11.92;57.72
39949;BME280;29070;48.102;-1.652;2023-04-22T07:26:42;100240.78;;;12.02;57.74
39949;BME280;29070;48.102;-1.652;2023-04-22T07:31:43;100242.56;;;12.08;57.94
39949;BME280;29070;48.102;-1.652;2023-04-22T07:36:43;100242.28;;;12.16;57.66
39949;BME280;29070;48.102;-1.652;2023-04-22T07:41:43;100251.66;;;12.31;57.51
39949;BME280;29070;48.102;-1.652;2023-04-22T07:46:44;100265.25;;;12.46;57.63
39949;BME280;29070;48.102;-1.652;2023-04-22T07:51:44;100254.44;;;12.54;57.33
39949;BME280;29070;48.102;-1.652;2023-04-22T07:56:45;100259.44;;;12.63;57.10
39949;BME280;29070;48.102;-1.652;2023-04-22T08:01:45;100265.47;;;12.82;56.86
39949;BME280;29070;48.102;-1.652;2023-04-22T08:06:45;100260.19;;;13.00;56.92
39949;BME280;29070;48.102;-1.652;2023-04-22T08:11:46;100272.53;;;13.18;56.82
39949;BME280;29070;48.102;-1.652;2023-04-22T08:16:46;100273.09;;;13.39;56.35
39949;BME280;29070;48.102;-1.652;2023-04-22T08:21:47;100275.34;;;13.65;56.51
39949;BME280;29070;48.102;-1.652;2023-04-22T08:26:47;100273.31;;;13.91;56.03
39949;BME280;29070;48.102;-1.652;2023-04-22T08:31:48;100290.88;;;14.09;55.95
39949;BME280;29070;48.102;-1.652;2023-04-22T08:36:48;100295.72;;;14.24;55.54
39949;BME280;29070;48.102;-1.652;2023-04-22T08:41:49;100287.09;;;14.28;55.42
39949;BME280;29070;48.102;-1.652;2023-04-22T08:46:50;100289.88;;;14.34;55.25
39949;BME280;29070;48.102;-1.652;2023-04-22T08:51:50;100285.03;;;14.78;55.62
39949;BME280;29070;48.102;-1.652;2023-04-22T08:56:52;100296.72;;;15.22;55.25
39949;BME280;29070;48.102;-1.652;2023-04-22T09:01:54;100309.59;;;15.48;54.48
39949;BME280;29070;48.102;-1.652;2023-04-22T09:06:55;100305.16;;;15.65;54.01
39949;BME280;29070;48.102;-1.652;2023-04-22T09:11:55;100303.16;;;15.72;54.28
39949;BME280;29070;48.102;-1.652;2023-04-22T09:16:57;100303.28;;;15.94;54.42
39949;BME280;29070;48.102;-1.652;2023-04-22T09:21:57;100317.38;;;16.00;53.26
39949;BME280;29070;48.102;-1.652;2023-04-22T09:27:00;100315.69;;;16.11;53.06
39949;BME280;29070;48.102;-1.652;2023-04-22T09:32:09;100308.97;;;16.03;52.42
39949;BME280;29070;48.102;-1.652;2023-04-22T09:37:11;100313.75;;;16.40;53.27
39949;BME280;29070;48.102;-1.652;2023-04-22T09:42:11;100309.09;;;16.69;52.86
39949;BME280;29070;48.102;-1.652;2023-04-22T09:47:12;100310.84;;;16.81;51.95
39949;BME280;29070;48.102;-1.652;2023-04-22T09:52:22;100307.94;;;16.99;51.58
39949;BME280;29070;48.102;-1.652;2023-04-22T09:57:24;100310.47;;;17.16;51.74
39949;BME280;29070;48.102;-1.652;2023-04-22T10:02:28;100299.50;;;17.07;50.67
39949;BME280;29070;48.102;-1.652;2023-04-22T10:07:28;100315.72;;;17.11;50.75
39949;BME280;29070;48.102;-1.652;2023-04-22T10:12:30;100322.34;;;17.08;50.79
39949;BME280;29070;48.102;-1.652;2023-04-22T10:17:33;100323.31;;;17.24;50.80
39949;BME280;29070;48.102;-1.652;2023-04-22T10:22:35;100336.88;;;17.55;50.46
39949;BME280;29070;48.102;-1.652;2023-04-22T10:27:37;100331.69;;;17.65;50.50
39949;BME280;29070;48.102;-1.652;2023-04-22T10:32:38;100333.06;;;18.00;50.14
39949;BME280;29070;48.102;-1.652;2023-04-22T10:37:42;100337.28;;;17.96;49.60
39949;BME280;29070;48.102;-1.652;2023-04-22T10:42:50;100330.66;;;17.99;49.37
39949;BME280;29070;48.102;-1.652;2023-04-22T10:47:51;100331.53;;;18.09;49.27
39949;BME280;29070;48.102;-1.652;2023-04-22T10:52:54;100316.53;;;18.31;48.59
39949;BME280;29070;48.102;-1.652;2023-04-22T10:57:58;100312.38;;;18.45;48.71
39949;BME280;29070;48.102;-1.652;2023-04-22T11:03:10;100324.56;;;18.83;48.83
39949;BME280;29070;48.102;-1.652;2023-04-22T11:08:13;100309.50;;;19.15;48.56
39949;BME280;29070;48.102;-1.652;2023-04-22T11:13:20;100310.59;;;19.24;47.26
39949;BME280;29070;48.102;-1.652;2023-04-22T11:18:25;100310.84;;;19.17;47.47
39949;BME280;29070;48.102;-1.652;2023-04-22T11:23:26;100333.97;;;19.17;46.91
39949;BME280;29070;48.102;-1.652;2023-04-22T11:28:27;100316.19;;;19.33;47.53
39949;BME280;29070;48.102;-1.652;2023-04-22T11:33:28;100327.16;;;19.47;47.34
39949;BME280;29070;48.102;-1.652;2023-04-22T11:38:28;100323.66;;;19.31;47.04
39949;BME280;29070;48.102;-1.652;2023-04-22T11:43:29;100328.09;;;18.99;46.66
39949;BME280;29070;48.102;-1.652;2023-04-22T11:48:30;100337.34;;;18.92;46.98
39949;BME280;29070;48.102;-1.652;2023-04-22T11:53:30;100343.19;;;18.89;46.92
39949;BME280;29070;48.102;-1.652;2023-04-22T11:58:30;100338.31;;;18.75;46.80
39949;BME280;29070;48.102;-1.652;2023-04-22T12:03:32;100346.44;;;19.01;47.27
39949;BME280;29070;48.102;-1.652;2023-04-22T12:08:34;100345.22;;;19.39;47.11
39949;BME280;29070;48.102;-1.652;2023-04-22T12:18:38;100335.13;;;19.47;46.39
39949;BME280;29070;48.102;-1.652;2023-04-22T12:23:42;100346.28;;;19.43;46.79
39949;BME280;29070;48.102;-1.652;2023-04-22T12:28:44;100331.47;;;19.73;46.84
39949;BME280;29070;48.102;-1.652;2023-04-22T12:33:45;100338.13;;;20.02;46.90
39949;BME280;29070;48.102;-1.652;2023-04-22T12:38:46;100335.19;;;19.88;46.33
39949;BME280;29070;48.102;-1.652;2023-04-22T12:43:46;100341.84;;;20.06;46.81
39949;BME280;29070;48.102;-1.652;2023-04-22T12:48:47;100357.84;;;20.16;46.07
39949;BME280;29070;48.102;-1.652;2023-04-22T12:53:47;100355.44;;;20.19;45.72
39949;BME280;29070;48.102;-1.652;2023-04-22T12:58:48;100366.63;;;20.06;44.59
39949;BME280;29070;48.102;-1.652;2023-04-22T13:03:48;100365.56;;;19.87;45.04
39949;BME280;29070;48.102;-1.652;2023-04-22T13:08:52;100363.38;;;19.63;44.93
39949;BME280;29070;48.102;-1.652;2023-04-22T13:13:52;100384.06;;;19.40;45.21
39949;BME280;29070;48.102;-1.652;2023-04-22T13:18:52;100375.72;;;19.06;45.31
39949;BME280;29070;48.102;-1.652;2023-04-22T13:23:53;100392.88;;;18.83;45.46
39949;BME280;29070;48.102;-1.652;2023-04-22T13:28:53;100400.19;;;18.60;45.30
39949;BME280;29070;48.102;-1.652;2023-04-22T13:33:54;100393.75;;;18.56;45.79
39949;BME280;29070;48.102;-1.652;2023-04-22T13:38:56;100389.94;;;18.42;45.59
39949;BME280;29070;48.102;-1.652;2023-04-22T13:43:56;100392.63;;;18.47;45.96
39949;BME280;29070;48.102;-1.652;2023-04-22T13:48:58;100385.13;;;18.34;46.10
39949;BME280;29070;48.102;-1.652;2023-04-22T13:53:59;100379.59;;;18.08;46.18
39949;BME280;29070;48.102;-1.652;2023-04-22T13:59:00;100387.06;;;18.11;46.18
39949;BME280;29070;48.102;-1.652;2023-04-22T14:04:00;100374.81;;;18.05;46.32
39949;BME280;29070;48.102;-1.652;2023-04-22T14:09:02;100384.00;;;17.92;46.45
39949;BME280;29070;48.102;-1.652;2023-04-22T14:14:03;100401.22;;;17.89;46.67
39949;BME280;29070;48.102;-1.652;2023-04-22T14:19:03;100381.25;;;18.14;46.73
39949;BME280;29070;48.102;-1.652;2023-04-22T14:24:05;100379.91;;;18.49;47.14
39949;BME280;29070;48.102;-1.652;2023-04-22T14:29:06;100379.59;;;18.83;47.03
39949;BME280;29070;48.102;-1.652;2023-04-22T14:34:06;100391.66;;;19.01;46.65
39949;BME280;29070;48.102;-1.652;2023-04-22T14:39:07;100375.72;;;19.06;46.64
39949;BME280;29070;48.102;-1.652;2023-04-22T14:44:07;100380.59;;;18.77;46.60
39949;BME280;29070;48.102;-1.652;2023-04-22T14:49:07;100382.41;;;18.66;46.74
39949;BME280;29070;48.102;-1.652;2023-04-22T14:54:08;100381.66;;;18.76;47.10
39949;BME280;29070;48.102;-1.652;2023-04-22T14:59:08;100382.09;;;19.05;47.24
39949;BME280;29070;48.102;-1.652;2023-04-22T15:04:09;100391.41;;;19.08;46.41
39949;BME280;29070;48.102;-1.652;2023-04-22T15:09:12;100385.38;;;19.33;46.47
39949;BME280;29070;48.102;-1.652;2023-04-22T15:14:13;100380.38;;;19.47;46.39
39949;BME280;29070;48.102;-1.652;2023-04-22T15:19:14;100386.22;;;19.43;46.12
39949;BME280;29070;48.102;-1.652;2023-04-22T15:24:15;100379.69;;;19.03;45.88
39949;BME280;29070;48.102;-1.652;2023-04-22T15:29:15;100375.97;;;18.99;46.75
39949;BME280;29070;48.102;-1.652;2023-04-22T15:34:15;100381.84;;;19.12;46.52
39949;BME280;29070;48.102;-1.652;2023-04-22T15:39:16;100369.59;;;19.05;46.42
39949;BME280;29070;48.102;-1.652;2023-04-22T15:44:16;100374.44;;;19.14;46.69
39949;BME280;29070;48.102;-1.652;2023-04-22T15:49:17;100383.69;;;19.06;46.90
39949;BME280;29070;48.102;-1.652;2023-04-22T15:54:18;100399.66;;;19.06;47.26
39949;BME280;29070;48.102;-1.652;2023-04-22T15:59:18;100399.69;;;19.11;47.87
39949;BME280;29070;48.102;-1.652;2023-04-22T16:04:18;100394.97;;;18.81;47.88
39949;BME280;29070;48.102;-1.652;2023-04-22T16:09:19;100392.00;;;18.72;48.29
39949;BME280;29070;48.102;-1.652;2023-04-22T16:14:20;100384.59;;;18.79;48.30
39949;BME280;29070;48.102;-1.652;2023-04-22T16:19:20;100376.44;;;18.86;48.60
39949;BME280;29070;48.102;-1.652;2023-04-22T16:24:20;100384.34;;;18.81;48.91
39949;BME280;29070;48.102;-1.652;2023-04-22T16:29:21;100377.44;;;18.80;49.18
39949;BME280;29070;48.102;-1.652;2023-04-22T16:34:22;100378.88;;;18.98;49.08
39949;BME280;29070;48.102;-1.652;2023-04-22T16:39:22;100386.88;;;18.98;49.10
39949;BME280;29070;48.102;-1.652;2023-04-22T16:44:22;100399.34;;;18.97;48.86
39949;BME280;29070;48.102;-1.652;2023-04-22T16:49:23;100392.81;;;18.73;48.89
39949;BME280;29070;48.102;-1.652;2023-04-22T16:54:24;100380.56;;;18.72;49.21
39949;BME280;29070;48.102;-1.652;2023-04-22T16:59:24;100382.31;;;18.51;49.43
39949;BME280;29070;48.102;-1.652;2023-04-22T17:04:24;100397.44;;;18.13;49.57
39949;BME280;29070;48.102;-1.652;2023-04-22T17:09:25;100395.50;;;18.03;49.86
39949;BME280;29070;48.102;-1.652;2023-04-22T17:14:25;100402.84;;;17.90;49.99
39949;BME280;29070;48.102;-1.652;2023-04-22T17:19:26;100401.94;;;17.85;50.24
39949;BME280;29070;48.102;-1.652;2023-04-22T17:24:26;100404.41;;;17.91;50.64
39949;BME280;29070;48.102;-1.652;2023-04-22T17:29:27;100407.34;;;17.68;50.82
39949;BME280;29070;48.102;-1.652;2023-04-22T17:34:27;100406.78;;;17.66;50.98
39949;BME280;29070;48.102;-1.652;2023-04-22T17:39:27;100397.16;;;17.60;51.34
39949;BME280;29070;48.102;-1.652;2023-04-22T17:44:28;100410.88;;;17.51;51.47
39949;BME280;29070;48.102;-1.652;2023-04-22T17:49:30;100409.97;;;17.41;51.83
39949;BME280;29070;48.102;-1.652;2023-04-22T17:54:30;100408.53;;;17.33;51.83
39949;BME280;29070;48.102;-1.652;2023-04-22T17:59:31;100401.03;;;17.25;52.01
39949;BME280;29070;48.102;-1.652;2023-04-22T18:04:31;100411.16;;;17.28;52.38
39949;BME280;29070;48.102;-1.652;2023-04-22T18:09:31;100424.34;;;17.23;52.35
39949;BME280;29070;48.102;-1.652;2023-04-22T18:14:32;100432.41;;;17.11;52.68
39949;BME280;29070;48.102;-1.652;2023-04-22T18:19:32;100431.31;;;16.90;52.62
39949;BME280;29070;48.102;-1.652;2023-04-22T18:24:32;100437.44;;;16.73;53.33
39949;BME280;29070;48.102;-1.652;2023-04-22T18:29:33;100439.22;;;16.51;53.77
39949;BME280;29070;48.102;-1.652;2023-04-22T18:34:34;100440.97;;;16.45;53.89
39949;BME280;29070;48.102;-1.652;2023-04-22T18:39:35;100440.66;;;16.42;53.92
39949;BME280;29070;48.102;-1.652;2023-04-22T18:44:35;100446.75;;;16.25;54.24
39949;BME280;29070;48.102;-1.652;2023-04-22T18:49:36;100450.53;;;16.00;54.62
39949;BME280;29070;48.102;-1.652;2023-04-22T18:54:36;100442.81;;;15.82;55.26
39949;BME280;29070;48.102;-1.652;2023-04-22T18:59:37;100445.72;;;15.69;55.31
39949;BME280;29070;48.102;-1.652;2023-04-22T19:04:38;100451.59;;;15.59;55.55
39949;BME280;29070;48.102;-1.652;2023-04-22T19:09:38;100453.56;;;15.52;55.82
39949;BME280;29070;48.102;-1.652;2023-04-22T19:14:39;100457.06;;;15.40;55.89
39949;BME280;29070;48.102;-1.652;2023-04-22T19:19:39;100461.56;;;15.28;56.20
39949;BME280;29070;48.102;-1.652;2023-04-22T19:24:40;100463.97;;;15.18;56.87
39949;BME280;29070;48.102;-1.652;2023-04-22T19:29:41;100456.31;;;15.04;57.01
39949;BME280;29070;48.102;-1.652;2023-04-22T19:34:42;100475.84;;;14.92;57.46
39949;BME280;29070;48.102;-1.652;2023-04-22T19:39:42;100475.94;;;14.85;57.84
39949;BME280;29070;48.102;-1.652;2023-04-22T19:44:43;100472.25;;;14.74;58.13
39949;BME280;29070;48.102;-1.652;2023-04-22T19:49:45;100485.00;;;14.65;58.13
39949;BME280;29070;48.102;-1.652;2023-04-22T19:54:47;100494.47;;;14.55;58.83
39949;BME280;29070;48.102;-1.652;2023-04-22T19:59:49;100496.88;;;14.44;58.94
39949;BME280;29070;48.102;-1.652;2023-04-22T20:04:49;100508.06;;;14.28;59.69
39949;BME280;29070;48.102;-1.652;2023-04-22T20:09:51;100490.25;;;14.23;59.58
39949;BME280;29070;48.102;-1.652;2023-04-22T20:14:52;100494.03;;;14.16;59.92
39949;BME280;29070;48.102;-1.652;2023-04-22T20:19:53;100494.94;;;14.09;60.30
39949;BME280;29070;48.102;-1.652;2023-04-22T20:25:02;100488.25;;;14.07;61.10
39949;BME280;29070;48.102;-1.652;2023-04-22T20:30:04;100491.94;;;14.06;60.41
39949;BME280;29070;48.102;-1.652;2023-04-22T20:35:06;100499.94;;;13.99;61.23
39949;BME280;29070;48.102;-1.652;2023-04-22T20:40:10;100490.25;;;13.93;61.27
39949;BME280;29070;48.102;-1.652;2023-04-22T20:45:13;100492.22;;;13.98;61.50
39949;BME280;29070;48.102;-1.652;2023-04-22T20:50:14;100488.22;;;13.95;61.66
39949;BME280;29070;48.102;-1.652;2023-04-22T20:55:15;100483.38;;;13.92;61.89
39949;BME280;29070;48.102;-1.652;2023-04-22T21:00:16;100478.97;;;13.86;62.11
39949;BME280;29070;48.102;-1.652;2023-04-22T21:05:16;100479.44;;;13.83;62.43
39949;BME280;29070;48.102;-1.652;2023-04-22T21:10:18;100471.00;;;13.74;62.74
39949;BME280;29070;48.102;-1.652;2023-04-22T21:15:19;100469.47;;;13.66;62.98
39949;BME280;29070;48.102;-1.652;2023-04-22T21:20:21;100456.97;;;13.62;63.28
39949;BME280;29070;48.102;-1.652;2023-04-22T21:25:23;100457.03;;;13.55;63.51
39949;BME280;29070;48.102;-1.652;2023-04-22T21:30:25;100457.56;;;13.45;63.75
39949;BME280;29070;48.102;-1.652;2023-04-22T21:35:25;100452.34;;;13.39;64.02
39949;BME280;29070;48.102;-1.652;2023-04-22T21:40:26;100455.88;;;13.32;64.08
39949;BME280;29070;48.102;-1.652;2023-04-22T21:45:27;100459.34;;;13.26;64.75
39949;BME280;29070;48.102;-1.652;2023-04-22T21:50:27;100449.09;;;13.18;65.17
39949;BME280;29070;48.102;-1.652;2023-04-22T21:55:29;100445.44;;;13.19;65.33
39949;BME280;29070;48.102;-1.652;2023-04-22T22:00:29;100455.81;;;13.14;65.46
39949;BME280;29070;48.102;-1.652;2023-04-22T22:05:30;100449.38;;;13.10;65.72
39949;BME280;29070;48.102;-1.652;2023-04-22T22:10:32;100449.22;;;13.05;65.90
39949;BME280;29070;48.102;-1.652;2023-04-22T22:15:32;100449.06;;;13.00;66.10
39949;BME280;29070;48.102;-1.652;2023-04-22T22:20:32;100438.38;;;12.94;66.40
39949;BME280;29070;48.102;-1.652;2023-04-22T22:25:33;100438.59;;;12.93;66.57
39949;BME280;29070;48.102;-1.652;2023-04-22T22:30:33;100436.25;;;12.85;66.83
39949;BME280;29070;48.102;-1.652;2023-04-22T22:35:33;100439.97;;;12.77;67.17
39949;BME280;29070;48.102;-1.652;2023-04-22T22:40:34;100441.56;;;12.78;67.54
39949;BME280;29070;48.102;-1.652;2023-04-22T22:45:34;100424.31;;;12.82;67.70
39949;BME280;29070;48.102;-1.652;2023-04-22T22:50:35;100414.84;;;12.74;67.86
39949;BME280;29070;48.102;-1.652;2023-04-22T22:55:35;100412.88;;;12.70;67.31
39949;BME280;29070;48.102;-1.652;2023-04-22T23:00:35;100404.84;;;12.65;68.06
39949;BME280;29070;48.102;-1.652;2023-04-22T23:05:36;100396.78;;;12.59;68.28
39949;BME280;29070;48.102;-1.652;2023-04-22T23:10:36;100390.31;;;12.55;68.45
39949;BME280;29070;48.102;-1.652;2023-04-22T23:15:37;100389.50;;;12.55;68.77
39949;BME280;29070;48.102;-1.652;2023-04-22T23:20:37;100390.97;;;12.51;68.98
39949;BME280;29070;48.102;-1.652;2023-04-22T23:25:38;100373.34;;;12.51;69.24
39949;BME280;29070;48.102;-1.652;2023-04-22T23:30:39;100366.47;;;12.50;69.45
39949;BME280;29070;48.102;-1.652;2023-04-22T23:35:40;100371.13;;;12.48;69.57
39949;BME280;29070;48.102;-1.652;2023-04-22T23:40:42;100364.28;;;12.47;69.94
39949;BME280;29070;48.102;-1.652;2023-04-22T23:45:42;100362.22;;;12.49;70.12
39949;BME280;29070;48.102;-1.652;2023-04-22T23:50:42;100359.22;;;12.46;70.30
39949;BME280;29070;48.102;-1.652;2023-04-22T23:55:43;100366.25;;;12.52;70.58
